Flight Track Log - Related Links

Times and Time Zones

All times are in EST time to prevent confusion due to time zone crossing. See the N39477 flight status page for this flight to view local times or setup timezone preferences in your user account.

Time Position Orientation Groundspeed Altitude Reporting Facility
EST Latitude Longitude Course Direction KTS MPH feet Rate Location/Type
Fri 04:07:51 PM 38.1372 -92.6419 305° West 113 130 3,700  Level Kansas City Center
Fri 04:08:53 PM 38.1536 -92.6719 305° West 109 125 4,400 677 Climbing Kansas City Center
Fri 04:09:55 PM 38.1703 -92.7042 303° West 108 124 5,100 774 Climbing Kansas City Center
Fri 04:10:57 PM 38.1872 -92.7331 307° West 105 121 6,000 726 Climbing Kansas City Center
Fri 04:11:59 PM 38.2078 -92.7686 306° West 103 119 6,600 290 Climbing Kansas City Center
Fri 04:13:00 PM 38.2073 -92.7497 305° West  Level Estimated
Fri 04:13:01 PM 38.2278 -92.8025 307° West 110 127 6,600  Level Kansas City Center
Fri 04:14:03 PM 38.2478 -92.8375 306° West 118 136 6,700  Climbing Kansas City Center
Fri 04:15:05 PM 38.2683 -92.8736 306° West 122 140 6,600 -97 Descending Kansas City Center
Fri 04:16:07 PM 38.2900 -92.9097 307° West 125 144 6,500 -48 Descending Kansas City Center
Fri 04:17:09 PM 38.3100 -92.9442 307° West 124 143 6,500 -48 Level Kansas City Center
Fri 04:18:11 PM 38.3300 -92.9792 306° West 122 140 6,400  Descending Kansas City Center
Fri 04:19:13 PM 38.3542 -93.0211 306° West 122 140 6,500 48 Climbing Kansas City Center
Fri 04:20:15 PM 38.3725 -93.0564 304° West 121 139 6,500  Level Kansas City Center
Fri 04:21:17 PM 38.3897 -93.0928 301° West 120 138 6,500  Level Kansas City Center
Fri 04:22:19 PM 38.4089 -93.1289 304° West 120 138 6,500  Level Kansas City Center
Fri 04:23:21 PM 38.4297 -93.1633 308° West 121 139 6,500  Level Kansas City Center
Fri 04:24:23 PM 38.4503 -93.1972 308° West 121 139 6,500  Level Kansas City Center
Fri 04:25:25 PM 38.4711 -93.2322 307° West 122 140 6,500  Level Kansas City Center
Fri 04:26:27 PM 38.4944 -93.2747 305° West 122 140 6,500  Level Kansas City Center
Fri 04:27:29 PM 38.5128 -93.3103 303° West 121 139 6,500 48 Level Kansas City Center
Fri 04:28:31 PM 38.5331 -93.3458 306° West 122 140 6,600 48 Climbing Kansas City Center
Fri 04:29:33 PM 38.5517 -93.3819 303° West 122 140 6,600 -48 Level Kansas City Center
Fri 04:30:35 PM 38.5719 -93.4181 306° West 123 142 6,500 -48 Descending Kansas City Center
Fri 04:31:37 PM 38.5919 -93.4539 306° West 124 143 6,500 48 Level Kansas City Center
Fri 04:32:39 PM 38.6131 -93.4889 308° West 124 143 6,600  Climbing Kansas City Center
Fri 04:33:41 PM 38.6381 -93.5322 306° West 125 144 6,500 -48 Descending Kansas City Center
Fri 04:34:43 PM 38.6583 -93.5692 305° West 126 145 6,500  Level Kansas City Center
Fri 04:35:45 PM 38.6781 -93.6039 306° West 123 142 6,500  Level Kansas City Center
Fri 04:36:47 PM 38.6964 -93.6392 304° West 120 138 6,500  Level Kansas City Center
Fri 04:37:49 PM 38.7167 -93.6744 306° West 120 138 6,500 -48 Level Kansas City Center
Fri 04:38:52 PM 38.7358 -93.7117 303° West 124 143 6,400  Descending Kansas City Center
Fri 04:39:54 PM 38.7597 -93.7536 306° West 124 143 6,500 48 Climbing Kansas City Center
Fri 04:40:56 PM 38.7794 -93.7883 306° West 121 139 6,500  Level Kansas City Center
Fri 04:41:58 PM 38.7986 -93.8233 305° West 124 143 6,500  Level Kansas City Center
Fri 04:43:00 PM 38.8197 -93.8639 304° West 123 142 6,500  Level Kansas City Center
Fri 04:44:02 PM 38.8397 -93.8986 306° West 124 143 6,500  Level Kansas City Center
Fri 04:45:04 PM 38.8614 -93.9408 303° West 125 144 6,500  Level Kansas City Center
Fri 04:46:06 PM 38.8811 -93.9756 306° West 127 146 6,500  Level Kansas City Center
Fri 04:47:08 PM 38.9028 -94.0156 305° West 121 139 6,500 48 Level Kansas City Center
Fri 04:48:10 PM 38.9217 -94.0497 305° West 123 142 6,600 48 Climbing Kansas City Center
Fri 04:49:12 PM 38.9428 -94.0897 304° West 122 140 6,600 -48 Level Kansas City Center
Fri 04:50:14 PM 38.9614 -94.1242 305° West 121 139 6,500 -97 Descending Kansas City Center
Fri 04:51:16 PM 38.9839 -94.1653 305° West 125 144 6,400 -48 Descending Kansas City Center
Fri 04:52:18 PM 39.0033 -94.2003 306° West 127 146 6,400 48 Level Kansas City Center
Fri 04:53:20 PM 39.0219 -94.2344 305° West 121 139 6,500 48 Climbing Kansas City Center
Fri 04:54:22 PM 39.0433 -94.2733 305° West 118 136 6,500 -48 Level Kansas City Center
Fri 04:55:24 PM 39.0622 -94.3086 305° West 124 143 6,400 -145 Descending Kansas City Center
Fri 04:56:26 PM 39.0881 -94.3456 312° West 125 144 6,200 -242 Descending Kansas City Center
Fri 04:57:28 PM 39.1131 -94.3769 316° Northwest 129 148 5,900 -387 Descending Kansas City Center
Fri 04:58:30 PM 39.1417 -94.4139 315° West 131 151 5,400 -435 Descending Kansas City Center
Fri 04:59:32 PM 39.1664 -94.4461 315° West 132 152 5,000 -435 Descending Kansas City Center
Fri 05:00:34 PM 39.1967 -94.4828 317° Northwest 134 154 4,500 -387 Descending Kansas City Center
Fri 05:01:36 PM 39.2233 -94.5133 318° Northwest 134 154 4,200 -339 Descending Kansas City Center
Fri 05:02:38 PM 39.2433 -94.5567 301° West 127 146 3,800 -242 Descending Kansas City Center
Fri 05:03:40 PM 39.2550 -94.5936 292° West 118 136 3,700 -48 Descending Kansas City Center
Fri 05:04:42 PM 39.2686 -94.6361 292° West 115 132 3,700  Level Kansas City Center
Fri 05:05:44 PM 39.2794 -94.6700 292° West 109 125 3,700  Level Kansas City Center
Fri 05:06:46 PM 39.2942 -94.7092 296° West 108 124 3,700 -48 Level Kansas City Center
Fri 05:07:48 PM 39.3097 -94.7419 302° West 112 129 3,600 -242 Descending Kansas City Center
Fri 05:08:50 PM 39.3231 -94.7839 292° West 114 131 3,200 -484 Descending Kansas City Center
Fri 05:09:52 PM 39.3367 -94.8203 296° West 117 135 2,600 -387 Descending Kansas City Center
Fri 05:10:54 PM 39.3503 -94.8578 295° West 120 138 2,400 -194 Descending Kansas City Center

Login

Don't have an account? Register now (free) for customized features, flight alerts, and more!